createdAt,value
2018-06-05T00:00:32.005Z,8.43
2018-06-05T00:03:00.385Z,8.30
2018-06-05T00:05:28.750Z,7.30
2018-06-05T00:07:57.105Z,7.90
2018-06-05T00:10:25.606Z,7.60
2018-06-05T00:12:54.065Z,7.97
2018-06-05T00:15:22.437Z,7.83
2018-06-05T00:17:50.918Z,7.00
2018-06-05T00:20:19.413Z,9.00
2018-06-05T00:22:47.863Z,9.47
2018-06-05T00:25:17.054Z,8.20
2018-06-05T00:27:45.413Z,7.30
2018-06-05T00:30:13.769Z,7.90
2018-06-05T00:32:42.145Z,7.97
2018-06-05T00:35:10.627Z,7.57
2018-06-05T00:37:39.246Z,9.20
2018-06-05T00:40:07.313Z,8.70
2018-06-05T00:42:35.782Z,8.80
2018-06-05T00:45:04.238Z,8.00
2018-06-05T00:47:32.595Z,8.63
2018-06-05T00:50:00.973Z,7.90
2018-06-05T00:52:29.457Z,8.00
2018-06-05T00:54:57.829Z,8.37
2018-06-05T00:57:26.178Z,8.93
2018-06-05T00:59:54.583Z,8.10
2018-06-05T01:02:22.974Z,7.80
2018-06-05T01:04:51.450Z,8.83
2018-06-05T01:07:19.813Z,10.10
2018-06-05T01:09:48.163Z,8.67
2018-06-05T01:12:16.520Z,9.07
2018-06-05T01:14:45.005Z,9.80
2018-06-05T01:17:13.489Z,8.80
2018-06-05T01:19:41.955Z,8.23
2018-06-05T01:22:10.334Z,14.20
2018-06-05T01:24:38.936Z,8.90
2018-06-05T01:27:11.621Z,10.03
2018-06-05T01:29:39.680Z,10.50
2018-06-05T01:32:08.153Z,7.53
2018-06-05T01:34:36.537Z,8.60
2018-06-05T01:37:05.338Z,8.37
2018-06-05T01:39:33.757Z,8.23
2018-06-05T01:42:02.135Z,9.00
2018-06-05T01:44:30.510Z,9.53
2018-06-05T01:46:59.012Z,9.10
2018-06-05T01:49:31.585Z,8.60
2018-06-05T01:51:59.954Z,10.10
2018-06-05T01:54:28.293Z,8.67
2018-06-05T01:56:56.703Z,10.10
2018-06-05T01:59:25.090Z,9.93
2018-06-05T02:01:53.510Z,10.20
2018-06-05T02:04:21.845Z,7.67
2018-06-05T02:06:50.240Z,7.33
2018-06-05T02:09:18.610Z,10.10
2018-06-05T02:11:46.989Z,10.07
2018-06-05T02:14:15.530Z,11.03
2018-06-05T02:16:44.074Z,8.60
2018-06-05T02:19:12.424Z,8.60
2018-06-05T02:21:40.758Z,8.70
2018-06-05T02:24:09.128Z,9.77
2018-06-05T02:26:37.506Z,9.47
2018-06-05T02:29:05.915Z,9.13
2018-06-05T02:31:34.320Z,9.50
2018-06-05T02:34:02.724Z,9.60
2018-06-05T02:36:31.120Z,10.67
2018-06-05T02:38:59.642Z,9.90
2018-06-05T02:41:28.074Z,9.97
2018-06-05T02:43:56.641Z,9.17
2018-06-05T02:46:25.013Z,10.20
2018-06-05T02:48:53.442Z,9.97
2018-06-05T02:51:21.878Z,12.03
2018-06-05T02:53:50.306Z,11.27
2018-06-05T02:56:18.714Z,10.03
2018-06-05T02:58:47.154Z,10.70
2018-06-05T03:01:15.543Z,9.03
2018-06-05T03:03:44.004Z,9.40
2018-06-05T03:06:12.525Z,9.50
2018-06-05T03:08:41.402Z,11.40
2018-06-05T03:11:09.788Z,10.03
2018-06-05T03:13:38.151Z,9.63
2018-06-05T03:16:06.752Z,10.60
2018-06-05T03:18:35.184Z,8.63
2018-06-05T03:21:03.561Z,7.87
2018-06-05T03:23:32.009Z,9.80
2018-06-05T03:26:00.386Z,10.97
2018-06-05T03:28:28.756Z,11.40
2018-06-05T03:30:57.149Z,10.70
2018-06-05T03:33:25.589Z,12.03
2018-06-05T03:35:53.989Z,10.67
2018-06-05T03:38:22.329Z,9.00
2018-06-05T03:40:50.805Z,10.23
2018-06-05T03:43:19.240Z,10.53
2018-06-05T03:45:47.619Z,10.60
2018-06-05T03:48:16.110Z,10.90
2018-06-05T03:50:44.440Z,9.27
2018-06-05T03:53:12.799Z,9.17
2018-06-05T03:55:41.279Z,9.70
2018-06-05T03:58:09.627Z,9.30
2018-06-05T04:00:38.148Z,12.67
2018-06-05T04:03:06.510Z,9.20
2018-06-05T04:05:35.066Z,10.73
2018-06-05T04:08:03.144Z,9.73
2018-06-05T04:10:31.651Z,11.23
2018-06-05T04:12:59.995Z,10.30
2018-06-05T04:15:28.447Z,11.90
2018-06-05T04:17:56.857Z,10.10
2018-06-05T04:20:25.396Z,10.90
2018-06-05T04:22:53.746Z,10.10
2018-06-05T04:25:22.118Z,10.70
2018-06-05T04:27:50.980Z,10.97
2018-06-05T04:30:19.363Z,12.03
2018-06-05T04:32:47.781Z,11.97
2018-06-05T04:35:16.205Z,11.87
2018-06-05T04:37:44.582Z,12.37
2018-06-05T04:40:12.949Z,13.37
2018-06-05T04:42:41.518Z,15.33
2018-06-05T04:45:09.944Z,11.57
2018-06-05T04:47:38.373Z,13.07
2018-06-05T04:50:06.747Z,16.80
2018-06-05T04:52:35.118Z,12.47
2018-06-05T04:55:03.557Z,13.90
2018-06-05T04:57:31.937Z,15.93
2018-06-05T05:00:00.357Z,13.30
2018-06-05T05:02:28.741Z,15.53
2018-06-05T05:04:57.153Z,13.30
2018-06-05T05:07:25.536Z,16.57
2018-06-05T05:09:53.899Z,18.70
2018-06-05T05:12:22.442Z,18.20
2018-06-05T05:14:50.850Z,18.13
2018-06-05T05:17:19.182Z,16.90
2018-06-05T05:19:47.640Z,15.80
2018-06-05T05:22:16.059Z,19.20
2018-06-05T05:24:44.518Z,15.03
2018-06-05T05:27:12.934Z,14.57
2018-06-05T05:29:41.327Z,14.27
2018-06-05T05:32:09.652Z,15.63
2018-06-05T05:34:38.060Z,14.70
2018-06-05T05:37:06.509Z,17.70
2018-06-05T05:39:34.905Z,15.63
2018-06-05T05:42:03.493Z,14.13
2018-06-05T05:44:32.013Z,14.90
2018-06-05T05:47:00.407Z,16.20
2018-06-05T05:49:28.839Z,15.90
2018-06-05T05:51:57.373Z,16.10
2018-06-05T05:54:25.986Z,11.63
2018-06-05T05:57:00.930Z,12.33
2018-06-05T05:59:29.295Z,15.60
2018-06-05T06:01:57.746Z,15.00
2018-06-05T06:04:26.143Z,14.03
2018-06-05T06:06:54.530Z,14.73
2018-06-05T06:09:22.890Z,11.03
2018-06-05T06:11:51.304Z,13.80
2018-06-05T06:14:19.805Z,14.03
2018-06-05T06:16:48.165Z,14.70
2018-06-05T06:19:16.660Z,14.00
2018-06-05T06:21:45.017Z,13.77
2018-06-05T06:24:13.599Z,12.90
2018-06-05T06:26:41.965Z,14.33
2018-06-05T06:29:10.346Z,12.93
2018-06-05T06:31:38.788Z,11.73
2018-06-05T06:34:07.179Z,13.97
2018-06-05T06:36:35.585Z,13.80
2018-06-05T06:39:05.890Z,12.13
2018-06-05T06:41:34.311Z,11.80
2018-06-05T06:44:03.002Z,12.73
2018-06-05T06:46:31.532Z,13.67
2018-06-05T06:49:00.146Z,12.90
2018-06-05T06:51:28.547Z,14.10
2018-06-05T06:53:57.078Z,12.07
2018-06-05T06:56:25.495Z,13.33
2018-06-05T06:58:53.935Z,12.63
2018-06-05T07:01:22.301Z,12.87
2018-06-05T07:03:50.717Z,14.00
2018-06-05T07:06:19.122Z,14.50
2018-06-05T07:08:47.797Z,12.57
2018-06-05T07:11:16.237Z,12.70
2018-06-05T07:13:44.757Z,12.57
2018-06-05T07:16:13.134Z,11.40
2018-06-05T07:18:41.514Z,12.20
2018-06-05T07:21:09.952Z,9.53
2018-06-05T07:23:38.328Z,12.23
2018-06-05T07:26:06.857Z,10.50
2018-06-05T07:28:35.275Z,9.97
2018-06-05T07:31:03.670Z,11.03
2018-06-05T07:33:32.009Z,10.93
2018-06-05T07:36:00.432Z,10.53
2018-06-05T07:38:28.785Z,9.90
2018-06-05T07:40:57.293Z,10.40
2018-06-05T07:43:25.756Z,10.90
2018-06-05T07:45:54.209Z,9.27
2018-06-05T07:48:22.922Z,10.20
2018-06-05T07:50:51.262Z,10.63
2018-06-05T07:53:19.625Z,10.90
2018-06-05T07:55:48.100Z,10.60
2018-06-05T07:58:16.465Z,10.40
2018-06-05T08:00:44.921Z,10.63
2018-06-05T08:03:13.498Z,10.40
2018-06-05T08:05:41.958Z,10.67
2018-06-05T08:08:10.374Z,10.10
2018-06-05T08:10:38.714Z,9.27
2018-06-05T08:13:07.222Z,10.40
2018-06-05T08:15:35.618Z,9.93
2018-06-05T08:18:03.990Z,10.73
2018-06-05T08:20:32.416Z,10.87
2018-06-05T08:23:00.937Z,9.77
2018-06-05T08:25:29.277Z,10.83
2018-06-05T08:27:57.381Z,10.37
2018-06-05T08:30:25.869Z,11.00
2018-06-05T08:32:54.589Z,12.50
2018-06-05T08:35:22.946Z,9.60
2018-06-05T08:37:51.314Z,10.07
2018-06-05T08:40:19.786Z,10.30
2018-06-05T08:42:48.136Z,9.90
2018-06-05T08:45:16.575Z,9.90
2018-06-05T08:47:45.052Z,10.57
2018-06-05T08:50:13.445Z,10.83
2018-06-05T08:52:41.848Z,10.83
2018-06-05T08:55:10.240Z,10.80
2018-06-05T08:57:38.635Z,10.97
2018-06-05T09:00:07.091Z,11.20
2018-06-05T09:02:35.495Z,9.73
2018-06-05T09:05:04.101Z,10.07
2018-06-05T09:07:32.600Z,10.53
2018-06-05T09:10:00.753Z,11.03
2018-06-05T09:12:29.265Z,10.27
2018-06-05T09:14:57.673Z,10.00
2018-06-05T09:17:26.106Z,10.60
2018-06-05T09:19:54.465Z,9.47
2018-06-05T09:22:23.002Z,11.07
2018-06-05T09:24:51.494Z,10.17
2018-06-05T09:27:19.978Z,10.40
2018-06-05T09:29:48.473Z,9.80
2018-06-05T09:32:16.885Z,9.87
2018-06-05T09:34:45.381Z,11.00
2018-06-05T09:37:13.807Z,10.23
2018-06-05T09:39:42.220Z,9.90
2018-06-05T09:42:10.709Z,10.60
2018-06-05T09:44:39.090Z,9.03
2018-06-05T09:47:07.506Z,9.80
2018-06-05T09:49:35.950Z,9.53
2018-06-05T09:52:04.010Z,9.57
2018-06-05T09:54:32.396Z,10.00
2018-06-05T09:57:01.020Z,9.20
2018-06-05T09:59:29.446Z,9.40
2018-06-05T10:01:57.913Z,9.47
2018-06-05T10:04:26.328Z,11.07
2018-06-05T10:06:54.915Z,9.10
2018-06-05T10:09:23.266Z,9.07
2018-06-05T10:11:51.762Z,8.90
2018-06-05T10:14:20.144Z,9.60
2018-06-05T10:16:48.686Z,8.60
2018-06-05T10:19:17.070Z,10.27
2018-06-05T10:21:45.402Z,9.30
2018-06-05T10:24:13.763Z,9.57
2018-06-05T10:26:41.863Z,10.63
2018-06-05T10:29:10.209Z,9.33
2018-06-05T10:31:38.553Z,9.10
2018-06-05T10:34:07.021Z,8.23
2018-06-05T10:36:35.427Z,9.43
2018-06-05T10:39:04.841Z,8.87
2018-06-05T10:41:33.297Z,9.50
2018-06-05T10:44:01.747Z,7.40
2018-06-05T10:46:30.138Z,8.53
2018-06-05T10:48:58.606Z,8.23
2018-06-05T10:51:27.109Z,7.70
2018-06-05T10:53:55.453Z,8.70
2018-06-05T10:56:23.902Z,8.50
2018-06-05T10:58:52.392Z,8.87
2018-06-05T11:01:20.966Z,9.50
2018-06-05T11:03:49.378Z,10.47
2018-06-05T11:06:18.436Z,8.90
2018-06-05T11:08:47.058Z,8.80
2018-06-05T11:11:15.682Z,9.13
2018-06-05T11:13:44.149Z,8.93
2018-06-05T11:16:12.587Z,7.97
2018-06-05T11:18:41.199Z,7.87
2018-06-05T11:21:09.740Z,8.00
2018-06-05T11:23:38.289Z,8.47
2018-06-05T11:26:06.627Z,7.63
2018-06-05T11:28:35.093Z,7.50
2018-06-05T11:31:03.575Z,7.47
2018-06-05T11:33:32.157Z,7.97
2018-06-05T11:36:01.007Z,8.70
2018-06-05T11:38:29.390Z,8.20
2018-06-05T11:40:57.859Z,8.30
2018-06-05T11:43:26.316Z,7.53
2018-06-05T11:45:54.692Z,8.73
2018-06-05T11:48:23.063Z,7.67
2018-06-05T11:50:51.559Z,7.93
2018-06-05T11:53:20.043Z,8.27
2018-06-05T11:55:48.470Z,7.13
2018-06-05T11:58:17.001Z,7.70
2018-06-05T12:00:45.542Z,8.07
2018-06-05T12:03:14.036Z,7.83
2018-06-05T12:05:42.823Z,8.07
2018-06-05T12:08:11.185Z,7.53
2018-06-05T12:10:39.662Z,8.60
2018-06-05T12:13:08.183Z,7.03
2018-06-05T12:15:36.606Z,8.33
2018-06-05T12:18:04.998Z,8.50
2018-06-05T12:20:33.442Z,8.03
2018-06-05T12:23:01.814Z,8.30
2018-06-05T12:25:30.483Z,9.28
2018-06-05T12:27:58.905Z,9.05
2018-06-05T12:30:27.342Z,9.05
2018-06-05T12:32:56.813Z,8.23
2018-06-05T12:35:25.369Z,8.90
2018-06-05T12:37:54.001Z,9.33
2018-06-05T12:40:22.554Z,8.23
2018-06-05T12:42:51.954Z,7.47
2018-06-05T12:45:20.462Z,7.50
2018-06-05T12:47:48.942Z,8.17
2018-06-05T12:50:17.394Z,8.40
2018-06-05T12:52:45.942Z,7.60
2018-06-05T12:55:14.482Z,8.30
2018-06-05T12:57:43.044Z,8.28
2018-06-05T13:00:11.503Z,7.67
2018-06-05T13:02:39.922Z,7.28
2018-06-05T13:05:08.498Z,7.42
2018-06-05T13:07:37.054Z,9.10
2018-06-05T13:10:05.633Z,7.80
2018-06-05T13:12:33.995Z,7.47
2018-06-05T13:15:02.422Z,7.67
2018-06-05T13:17:30.821Z,8.80
2018-06-05T13:19:59.310Z,8.10
2018-06-05T13:22:27.750Z,7.80
2018-06-05T13:24:56.245Z,8.60
2018-06-05T13:27:24.591Z,8.30
2018-06-05T13:29:53.060Z,8.70
2018-06-05T13:32:21.653Z,9.13
2018-06-05T13:34:50.084Z,8.40
2018-06-05T13:37:18.669Z,7.40
2018-06-05T13:39:47.133Z,8.33
2018-06-05T13:42:15.627Z,7.13
2018-06-05T13:44:44.174Z,8.63
2018-06-05T13:47:12.542Z,8.40
2018-06-05T13:49:41.014Z,7.40
2018-06-05T13:52:09.431Z,7.40
2018-06-05T13:54:37.932Z,8.80
2018-06-05T13:57:06.497Z,8.50
2018-06-05T13:59:34.946Z,7.77
2018-06-05T14:02:03.415Z,7.10
2018-06-05T14:04:31.935Z,8.50
2018-06-05T14:07:00.339Z,8.17
2018-06-05T14:09:28.761Z,7.70
2018-06-05T14:11:57.237Z,10.43
2018-06-05T14:14:25.608Z,8.77
2018-06-05T14:16:54.122Z,8.47
2018-06-05T14:19:22.532Z,9.30
2018-06-05T14:21:50.978Z,9.77
2018-06-05T14:24:19.542Z,9.47
2018-06-05T14:26:48.022Z,8.40
2018-06-05T14:29:16.511Z,8.40
2018-06-05T14:31:44.948Z,9.30
2018-06-05T14:34:13.537Z,8.10
2018-06-05T14:36:41.955Z,9.63
2018-06-05T14:39:10.855Z,9.60
2018-06-05T14:41:40.465Z,8.73
2018-06-05T14:44:09.071Z,9.20
2018-06-05T14:46:37.818Z,9.00
2018-06-05T14:49:06.317Z,9.07
2018-06-05T14:51:34.813Z,9.23
2018-06-05T14:54:04.001Z,8.70
2018-06-05T14:56:32.451Z,8.90
2018-06-05T14:59:00.869Z,9.70
2018-06-05T15:01:29.618Z,9.37
2018-06-05T15:03:58.024Z,9.27
2018-06-05T15:06:26.430Z,9.07
2018-06-05T15:08:55.071Z,7.97
2018-06-05T15:11:23.481Z,8.43
2018-06-05T15:13:51.971Z,6.97
2018-06-05T15:16:20.567Z,8.40
2018-06-05T15:18:48.999Z,9.57
2018-06-05T15:21:17.535Z,9.50
2018-06-05T15:23:45.943Z,8.70
2018-06-05T15:26:14.355Z,8.63
2018-06-05T15:28:43.050Z,10.37
2018-06-05T15:31:11.662Z,10.07
2018-06-05T15:33:40.227Z,9.43
2018-06-05T15:36:08.741Z,9.27
2018-06-05T15:38:37.571Z,9.40
2018-06-05T15:41:06.076Z,8.80
2018-06-05T15:43:34.698Z,9.63
2018-06-05T15:46:03.190Z,9.60
2018-06-05T15:48:32.008Z,9.63
2018-06-05T15:51:00.423Z,9.17
2018-06-05T15:53:29.034Z,9.30
2018-06-05T15:55:57.476Z,9.00
2018-06-05T15:58:25.560Z,9.40
2018-06-05T16:00:54.086Z,9.07
2018-06-05T16:03:22.478Z,9.10
2018-06-05T16:05:50.953Z,8.63
2018-06-05T16:08:19.520Z,9.07
2018-06-05T16:10:47.911Z,9.47
2018-06-05T16:13:16.413Z,9.53
2018-06-05T16:15:44.840Z,8.90
2018-06-05T16:18:13.251Z,9.17
2018-06-05T16:20:41.895Z,10.33
2018-06-05T16:23:10.387Z,8.87
2018-06-05T16:25:38.822Z,8.93
2018-06-05T16:28:07.256Z,9.70
2018-06-05T16:30:35.669Z,8.73
2018-06-05T16:33:04.200Z,9.43
2018-06-05T16:35:32.619Z,9.13
2018-06-05T16:38:01.005Z,8.23
2018-06-05T16:40:29.433Z,9.27
2018-06-05T16:42:57.813Z,9.43
2018-06-05T16:45:26.419Z,9.20
2018-06-05T16:47:54.953Z,12.00
2018-06-05T16:50:23.161Z,9.27
2018-06-05T16:52:51.583Z,9.87
2018-06-05T16:55:20.083Z,8.77
2018-06-05T16:57:48.521Z,9.60
2018-06-05T17:00:16.972Z,10.83
2018-06-05T17:02:45.395Z,12.87
2018-06-05T17:05:13.924Z,9.10
2018-06-05T17:07:42.398Z,9.00
2018-06-05T17:10:10.949Z,9.07
2018-06-05T17:12:39.439Z,9.40
2018-06-05T17:15:07.852Z,9.30
2018-06-05T17:17:36.463Z,10.23
2018-06-05T17:20:05.158Z,9.40
2018-06-05T17:22:33.599Z,8.67
2018-06-05T17:25:02.212Z,9.40
2018-06-05T17:27:30.746Z,8.93
2018-06-05T17:29:59.055Z,8.17
2018-06-05T17:32:27.460Z,8.93
2018-06-05T17:34:56.017Z,8.60
2018-06-05T17:37:25.257Z,8.00
2018-06-05T17:39:53.794Z,8.50
2018-06-05T17:42:22.396Z,6.60
2018-06-05T17:44:51.046Z,7.23
2018-06-05T17:47:19.567Z,6.30
2018-06-05T17:49:48.039Z,7.50
2018-06-05T17:52:16.515Z,8.03
2018-06-05T17:54:45.048Z,7.43
2018-06-05T17:57:13.491Z,7.70
2018-06-05T17:59:41.984Z,9.13
2018-06-05T18:02:10.518Z,9.20
2018-06-05T18:04:39.005Z,7.83
2018-06-05T18:07:07.414Z,9.27
2018-06-05T18:09:36.022Z,9.00
2018-06-05T18:12:04.593Z,9.47
2018-06-05T18:14:33.300Z,10.60
2018-06-05T18:17:01.714Z,11.03
2018-06-05T18:19:30.267Z,10.50
2018-06-05T18:21:58.786Z,9.30
2018-06-05T18:24:28.063Z,10.17
2018-06-05T18:26:57.361Z,9.20
2018-06-05T18:29:25.976Z,11.60
2018-06-05T18:31:55.188Z,9.90
2018-06-05T18:34:24.394Z,10.50
2018-06-05T18:36:53.373Z,9.87
2018-06-05T18:39:21.901Z,9.37
2018-06-05T18:41:50.795Z,11.23
2018-06-05T18:44:19.920Z,10.63
2018-06-05T18:46:48.973Z,9.90
2018-06-05T18:49:17.389Z,9.80
2018-06-05T18:51:46.740Z,9.20
2018-06-05T18:54:15.691Z,10.47
2018-06-05T18:56:44.753Z,10.00
2018-06-05T18:59:13.259Z,9.30
2018-06-05T19:01:41.877Z,9.47
2018-06-05T19:04:10.601Z,9.37
2018-06-05T19:06:39.573Z,9.60
2018-06-05T19:09:08.716Z,9.90
2018-06-05T19:11:37.526Z,10.30
2018-06-05T19:14:06.110Z,9.50
2018-06-05T19:16:34.734Z,9.00
2018-06-05T19:19:03.205Z,10.27
2018-06-05T19:21:31.815Z,10.50
2018-06-05T19:24:00.389Z,10.13
2018-06-05T19:26:28.993Z,9.67
2018-06-05T19:28:58.476Z,10.70
2018-06-05T19:31:26.984Z,9.40
2018-06-05T19:33:55.499Z,9.77
2018-06-05T19:36:24.142Z,9.70
2018-06-05T19:38:52.824Z,8.93
2018-06-05T19:41:21.409Z,10.13
2018-06-05T19:43:49.833Z,9.57
2018-06-05T19:46:18.363Z,10.23
2018-06-05T19:48:46.965Z,9.63
2018-06-05T19:51:15.378Z,11.17
2018-06-05T19:53:44.244Z,10.00
2018-06-05T19:56:12.798Z,10.73
2018-06-05T19:58:41.313Z,10.43
2018-06-05T20:01:09.896Z,10.93
2018-06-05T20:03:38.382Z,11.60
2018-06-05T20:06:06.996Z,9.67
2018-06-05T20:08:35.516Z,10.00
2018-06-05T20:11:04.004Z,10.20
2018-06-05T20:13:32.472Z,10.70
2018-06-05T20:16:01.891Z,9.90
2018-06-05T20:18:30.489Z,11.70
2018-06-05T20:20:59.108Z,10.80
2018-06-05T20:23:27.858Z,11.00
2018-06-05T20:25:56.529Z,10.93
2018-06-05T20:28:25.029Z,10.30
2018-06-05T20:30:53.462Z,13.70
2018-06-05T20:33:22.147Z,11.70
2018-06-05T20:35:50.846Z,12.63
2018-06-05T20:38:19.439Z,11.80
2018-06-05T20:40:47.994Z,12.10
2018-06-05T20:43:16.522Z,10.73
2018-06-05T20:45:45.086Z,11.10
2018-06-05T20:48:13.650Z,12.03
2018-06-05T20:50:42.209Z,13.87
2018-06-05T20:53:10.595Z,12.23
2018-06-05T20:55:39.062Z,11.70
2018-06-05T20:58:07.546Z,10.33
2018-06-05T21:00:36.065Z,11.43
2018-06-05T21:03:04.631Z,10.97
2018-06-05T21:05:33.221Z,11.27
2018-06-05T21:08:01.863Z,10.60
2018-06-05T21:10:30.505Z,11.40
2018-06-05T21:12:58.956Z,10.40
2018-06-05T21:15:27.482Z,9.70
2018-06-05T21:17:55.956Z,9.27
2018-06-05T21:20:24.506Z,10.73
2018-06-05T21:22:52.970Z,11.00
2018-06-05T21:25:21.549Z,10.33
2018-06-05T21:27:50.027Z,11.47
2018-06-05T21:30:18.507Z,10.57
2018-06-05T21:32:46.999Z,10.97
2018-06-05T21:35:15.483Z,10.13
2018-06-05T21:37:44.029Z,10.77
2018-06-05T21:40:12.586Z,10.33
2018-06-05T21:42:41.991Z,12.57
2018-06-05T21:45:10.452Z,11.40
2018-06-05T21:47:39.092Z,11.30
2018-06-05T21:50:07.573Z,10.57
2018-06-05T21:52:36.135Z,9.60
2018-06-05T21:55:04.931Z,11.53
2018-06-05T21:57:34.031Z,11.80
2018-06-05T22:00:03.235Z,12.13
2018-06-05T22:02:31.921Z,12.87
2018-06-05T22:05:00.421Z,12.07
2018-06-05T22:07:28.976Z,10.33
2018-06-05T22:09:57.575Z,13.60
2018-06-05T22:12:26.297Z,11.73
2018-06-05T22:14:57.934Z,10.60
2018-06-05T22:17:27.201Z,14.27
2018-06-05T22:19:56.529Z,15.13
2018-06-05T22:22:24.946Z,13.60
2018-06-05T22:24:53.372Z,13.37
2018-06-05T22:27:21.985Z,14.03
2018-06-05T22:29:50.540Z,12.20
2018-06-05T22:32:19.015Z,14.57
2018-06-05T22:34:47.476Z,13.90
2018-06-05T22:37:15.868Z,14.47
2018-06-05T22:39:44.249Z,14.17
2018-06-05T22:42:12.653Z,13.70
2018-06-05T22:44:41.038Z,14.27
2018-06-05T22:47:09.415Z,14.40
2018-06-05T22:49:37.811Z,13.47
2018-06-05T22:52:06.269Z,13.30
2018-06-05T22:54:34.646Z,13.27
2018-06-05T22:57:03.078Z,13.63
2018-06-05T22:59:31.630Z,13.60
2018-06-05T23:02:00.041Z,14.07
2018-06-05T23:04:28.431Z,13.77
2018-06-05T23:06:57.015Z,13.67
2018-06-05T23:09:25.412Z,13.77
2018-06-05T23:11:53.883Z,15.40
2018-06-05T23:14:22.328Z,16.50
2018-06-05T23:16:50.729Z,15.37
2018-06-05T23:19:19.104Z,14.50
2018-06-05T23:21:47.553Z,15.23
2018-06-05T23:24:16.069Z,14.43
2018-06-05T23:26:44.675Z,14.57
2018-06-05T23:29:13.118Z,15.70
2018-06-05T23:31:41.730Z,15.33
2018-06-05T23:34:10.447Z,16.27
2018-06-05T23:36:38.986Z,15.33
2018-06-05T23:39:07.941Z,14.80
2018-06-05T23:41:36.537Z,16.40
2018-06-05T23:44:05.050Z,15.03
2018-06-05T23:46:33.520Z,17.50
2018-06-05T23:49:02.053Z,15.70
2018-06-05T23:51:30.594Z,16.63
2018-06-05T23:53:59.042Z,17.07
2018-06-05T23:56:27.468Z,19.43
2018-06-05T23:58:55.940Z,17.20
